North Bend, NE (68649)

12:27 PM CDT on August 24, 2016 (GMT -0500)
Morse Bluff, NE. | | Change Station

Elev 1398 ft 41.43 °N, 96.80 °W | Updated 4 minutes ago

Clear
Clear
76.4 °F
Feels Like 78 °F
N
5.0
Wind Variable Wind from NE
Gusts 11.0 mph

Today
High -- | Low -- °F
--% Chance of Precip.
Yesterday
High -- | Low -- °F
Precip. -- in
Pressure 30.02 in
Visibility 10.0 miles
Clouds Clear
Heat Index 78 °F
Dew Point 62 °F
Humidity 62%
Rainfall 0.07 in
Snow Depth Not available.
6:45 AM 8:12 PM
Waning Gibbous, 55% visible
METAR KFET 241715Z AUTO 02007KT 10SM CLR 26/15 A3002 RMK AO2 T02550152
Pressure 30.02 in
Visibility 10.0 miles
Clouds Clear
Heat Index 78 °F
Dew Point 62 °F
Humidity 62%
Rainfall 0.07 in
Snow Depth Not available.
6:45 AM 8:12 PM
Waning Gibbous, 55% visible
METAR KFET 241715Z AUTO 02007KT 10SM CLR 26/15 A3002 RMK AO2 T02550152

10-Day Weather Forecast

Almanac

Astronomy

Aug. 24, 2016 Rise Set
Actual Time
Civil Twilight
Nautical Twilight
Astronomical Twilight
Moon
Length of Visible Light
Length of Day
Tomorrow will be .
, % of the Moon is Illuminated

Today's Extremes

State Highs State Lows

Community

WunderPhotos

Upload Photos

1,934,658 photos uploaded!

WunderBlog® & News

Nearby

Air Quality

  Air Quality AQ Index Pollutant
Not available.

Snow Depth

Station Depth Elevation

Earthquake Activity

City Distance Mag. Time & Date
Minimum magnitude displayed is 2.5.

Coastal Water Temperatures

Place Temperature

Stations

Nearby Weather Stations

Station Location Temp. Windchill Dew Point Humidity Wind Precip. Elev Updated Type
                   

Watches & Warnings

There are currently no watches in effect.